Time;durP1;ratioP1;P1;durP2;ratioP2;P2;SDS_P1;SDS_P2;PMS_P1;PMS_P2;Temp;Humidity;BMP_temperature;BMP_pressure;BME280_temperature;BME280_humidity;BME280_pressure;Samples;Min_cycle;Max_cycle;Signal;HPM_P1;HPM_P2
2022/06/18 00:00:27;;;;;;;11.25;4.85;;;;;;;22.19;49.15;93257.28;4788315;29;20071;-74
2022/06/18 00:02:53;;;;;;;7.55;4.30;;;;;;;22.18;48.93;93245.06;4804388;29;20716;-74
2022/06/18 00:05:20;;;;;;;9.10;4.75;;;;;;;22.15;49.40;93251.06;4787996;29;20100;-74
2022/06/18 00:07:50;;;;;;;6.68;4.70;;;;;;;22.10;50.13;93243.31;4787777;29;20613;-74
2022/06/18 00:10:22;;;;;;;10.68;5.25;;;;;;;22.05;51.00;93248.91;4804422;29;20142;-74
2022/06/18 00:15:36;;;;;;;8.45;4.97;;;;;;;21.92;52.20;93244.72;4803975;29;20130;-74
2022/06/18 00:18:03;;;;;;;9.30;5.03;;;;;;;21.87;52.99;93244.97;4804024;29;20038;-74
2022/06/18 00:20:32;;;;;;;11.20;5.40;;;;;;;21.81;52.93;93253.19;4803921;29;20038;-74
2022/06/18 00:23:00;;;;;;;7.93;5.40;;;;;;;21.76;54.13;93256.09;4804032;29;20531;-74
2022/06/18 00:25:28;;;;;;;11.52;5.63;;;;;;;21.72;54.01;93257.88;4804052;29;20123;-74
2022/06/18 00:27:55;;;;;;;6.65;5.13;;;;;;;21.68;54.60;93261.53;4803892;29;20066;-74
2022/06/18 00:30:23;;;;;;;10.18;5.57;;;;;;;21.64;55.02;93258.78;4787583;29;20042;-74
2022/06/18 00:32:49;;;;;;;10.43;5.57;;;;;;;21.59;55.73;93253.66;4803985;29;20356;-74
2022/06/18 00:35:15;;;;;;;10.10;5.82;;;;;;;21.56;55.75;93262.34;4788771;29;20049;-74
2022/06/18 00:37:42;;;;;;;8.63;5.68;;;;;;;21.52;55.76;93270.22;4791336;29;20061;-74
2022/06/18 00:40:21;;;;;;;9.00;5.13;;;;;;;21.49;55.97;93267.47;4791201;29;20418;-74
2022/06/18 00:42:49;;;;;;;9.35;5.43;;;;;;;21.46;55.26;93268.13;4791349;29;20043;-74
2022/06/18 00:45:23;;;;;;;9.27;5.15;;;;;;;21.42;54.81;93268.03;4807520;29;20047;-74
2022/06/18 00:48:07;;;;;;;12.63;4.97;;;;;;;21.37;54.64;93263.69;4776349;29;20039;-74
2022/06/18 00:50:39;;;;;;;11.82;5.20;;;;;;;21.34;54.49;93263.56;4791046;29;20133;-74
2022/06/18 00:53:12;;;;;;;8.57;4.93;;;;;;;21.30;54.55;93268.78;4790992;29;20449;-74
2022/06/18 00:55:46;;;;;;;9.98;5.35;;;;;;;21.29;54.85;93269.13;4776226;29;20046;-74
2022/06/18 00:58:20;;;;;;;10.70;5.60;;;;;;;21.30;55.42;93266.13;4807117;29;20041;-74
2022/06/18 01:00:49;;;;;;;11.52;5.90;;;;;;;21.27;56.21;93260.69;4790748;29;20055;-74
2022/06/18 01:03:31;;;;;;;11.65;5.72;;;;;;;21.24;55.93;93258.69;4790659;29;20543;-73
2022/06/18 01:06:10;;;;;;;11.23;5.40;;;;;;;21.19;56.25;93260.47;4790924;29;20046;-73
2022/06/18 01:08:39;;;;;;;9.80;6.10;;;;;;;21.19;56.98;93259.69;4806951;29;20117;-73
2022/06/18 01:11:11;;;;;;;7.75;5.85;;;;;;;21.20;57.06;93255.91;4790772;29;20039;-74
2022/06/18 01:13:39;;;;;;;9.82;6.18;;;;;;;21.18;57.27;93255.47;4790433;29;20410;-73
2022/06/18 01:16:09;;;;;;;9.93;6.20;;;;;;;21.14;57.72;93257.25;4790690;29;20134;-74
2022/06/18 01:18:38;;;;;;;11.40;6.00;;;;;;;21.12;57.59;93256.78;4790646;29;20570;-75
2022/06/18 01:21:49;;;;;;;10.95;5.88;;;;;;;21.08;57.68;93258.59;4790417;29;20142;-75
2022/06/18 01:24:17;;;;;;;9.65;5.82;;;;;;;21.05;58.07;93253.91;4757503;29;20105;-75
2022/06/18 01:26:46;;;;;;;14.07;6.18;;;;;;;21.02;58.41;93262.56;4790281;29;20413;-75
2022/06/18 01:29:13;;;;;;;11.57;5.68;;;;;;;20.97;58.57;93258.25;4790186;29;20043;-74
2022/06/18 01:31:39;;;;;;;7.05;5.38;;;;;;;20.92;58.91;93253.16;4790547;29;20046;-75
2022/06/18 01:34:06;;;;;;;9.82;5.50;;;;;;;20.89;58.53;93261.78;4790141;29;20043;-75
2022/06/18 01:36:37;;;;;;;9.50;5.72;;;;;;;20.85;58.96;93266.19;4790200;29;20506;-75
2022/06/18 01:39:06;;;;;;;10.77;5.88;;;;;;;20.79;59.30;93258.44;4790059;29;20047;-75
2022/06/18 01:41:52;;;;;;;9.23;5.72;;;;;;;20.75;59.12;93254.13;4790576;29;20133;-74
2022/06/18 01:44:40;;;;;;;7.47;5.60;;;;;;;20.69;60.03;93252.78;4789906;29;20035;-75
2022/06/18 01:47:16;;;;;;;9.40;5.45;;;;;;;20.63;60.49;93262.09;4788731;29;20042;-75
2022/06/18 01:50:20;;;;;;;8.80;5.30;;;;;;;20.56;60.14;93254.63;4789980;29;20034;-75
2022/06/18 01:52:50;;;;;;;10.88;5.70;;;;;;;20.53;60.09;93250.72;4787643;29;20540;-75
2022/06/18 01:55:26;;;;;;;10.02;5.22;;;;;;;20.50;59.76;93251.38;4789624;29;20039;-75
2022/06/18 01:58:01;;;;;;;6.50;4.90;;;;;;;20.47;60.14;93245.97;4789904;29;20074;-75
2022/06/18 02:00:29;;;;;;;12.93;5.70;;;;;;;20.43;60.63;93250.38;4804487;29;20057;-75
2022/06/18 02:03:02;;;;;;;10.43;5.05;;;;;;;20.40;60.37;93254.47;4790586;29;20560;-75
2022/06/18 02:05:29;;;;;;;10.07;5.63;;;;;;;20.35;60.79;93254.66;4789488;29;20118;-75
2022/06/18 02:07:55;;;;;;;7.70;5.50;;;;;;;20.32;60.37;93252.66;4805992;29;20046;-75
2022/06/18 02:10:29;;;;;;;9.32;5.43;;;;;;;20.33;60.27;93251.56;4775107;29;20038;-75
2022/06/18 02:12:59;;;;;;;7.60;5.22;;;;;;;20.29;59.52;93254.09;4789462;29;20475;-75
2022/06/18 02:15:30;;;;;;;11.25;5.00;;;;;;;20.27;59.29;93248.34;4805537;29;20463;-75
2022/06/18 02:17:59;;;;;;;8.15;4.93;;;;;;;20.26;59.11;93248.66;4789746;29;20069;-75
2022/06/18 02:20:28;;;;;;;7.20;4.57;;;;;;;20.26;59.01;93251.31;4789668;29;20107;-75
2022/06/18 02:22:56;;;;;;;8.48;4.60;;;;;;;20.24;59.08;93248.19;4789494;29;20050;-75
2022/06/18 02:25:27;;;;;;;8.55;4.85;;;;;;;20.19;59.48;93243.88;4789328;29;20210;-74
2022/06/18 02:28:23;;;;;;;;;;;;;;;20.14;59.71;93242.19;4790038;29;20050;-75
2022/06/18 02:30:52;;;;;;;7.40;4.88;;;;;;;20.10;59.54;93243.19;4777892;29;20337;-75
2022/06/18 02:33:23;;;;;;;8.90;5.03;;;;;;;20.05;59.65;93236.19;4788973;29;20110;-75
2022/06/18 02:35:49;;;;;;;8.40;4.60;;;;;;;20.03;59.80;93238.38;4805375;29;20074;-75
2022/06/18 02:38:19;;;;;;;11.00;4.63;;;;;;;20.00;59.65;93236.41;4788982;29;20047;-75
2022/06/18 02:40:45;;;;;;;10.43;4.90;;;;;;;19.98;59.82;93227.97;4789389;29;20050;-75
2022/06/18 02:43:12;;;;;;;10.60;4.57;;;;;;;19.95;60.12;93232.06;4774435;29;20039;-75
2022/06/18 02:45:39;;;;;;;7.97;4.82;;;;;;;19.92;60.24;93231.91;4805188;29;20042;-75
2022/06/18 02:48:07;;;;;;;13.88;4.75;;;;;;;19.87;60.41;93230.25;4788902;29;20129;-75
2022/06/18 02:50:36;;;;;;;9.88;4.90;;;;;;;19.87;60.55;93235.56;4788746;29;20221;-75
2022/06/18 02:53:04;;;;;;;7.10;4.47;;;;;;;19.85;60.56;93237.00;4774196;29;20061;-75
2022/06/18 02:55:37;;;;;;;9.48;4.93;;;;;;;19.82;60.62;93237.66;4788824;29;20073;-75
2022/06/18 02:58:17;;;;;;;6.43;4.72;;;;;;;19.78;60.47;93240.16;4788586;29;20054;-74
2022/06/18 03:00:48;;;;;;;8.82;4.85;;;;;;;19.74;60.27;93237.38;4804862;29;20051;-75
2022/06/18 03:03:16;;;;;;;7.82;4.47;;;;;;;19.74;59.97;93240.03;4788575;29;20095;-75
2022/06/18 03:05:42;;;;;;;7.40;4.55;;;;;;;19.74;59.99;93247.22;4774028;29;20031;-74
2022/06/18 03:08:08;;;;;;;7.47;4.25;;;;;;;19.72;60.07;93244.91;4788554;29;20153;-74
2022/06/18 03:13:20;;;;;;;12.20;4.95;;;;;;;19.74;61.16;93242.69;4788447;29;20137;-75
2022/06/18 03:15:50;;;;;;;9.50;5.32;;;;;;;19.75;61.44;93233.63;4788705;29;20077;-75
2022/06/18 03:18:19;;;;;;;9.45;4.97;;;;;;;19.74;61.20;93237.38;4788600;29;20409;-75
2022/06/18 03:21:10;;;;;;;8.57;4.85;;;;;;;19.72;61.36;93239.59;4804888;29;20043;-75
2022/06/18 03:23:37;;;;;;;10.07;5.80;;;;;;;19.69;61.75;93237.56;4788442;29;20067;-75
2022/06/18 03:26:03;;;;;;;11.05;5.38;;;;;;;19.68;62.09;93238.66;4773658;29;20061;-75
2022/06/18 03:28:29;;;;;;;11.23;5.43;;;;;;;19.70;62.02;93241.81;4803251;29;20463;-75
2022/06/18 03:30:55;;;;;;;12.25;5.47;;;;;;;19.69;62.13;93245.53;4773637;29;20095;-75
2022/06/18 03:33:21;;;;;;;9.88;5.10;;;;;;;19.68;61.89;93241.31;4788281;29;20038;-75
2022/06/18 03:35:49;;;;;;;7.55;4.70;;;;;;;19.70;61.28;93244.47;4773350;29;20062;-75
2022/06/18 03:38:16;;;;;;;8.43;5.00;;;;;;;19.74;60.98;93241.91;4788091;29;20031;-75
2022/06/18 03:40:44;;;;;;;12.77;5.55;;;;;;;19.79;60.91;93241.72;4773252;29;20034;-75
2022/06/18 03:43:11;;;;;;;10.45;5.20;;;;;;;19.82;60.89;93235.00;4788090;29;20042;-75
2022/06/18 03:45:41;;;;;;;11.38;4.95;;;;;;;19.82;60.96;93242.97;4788366;29;20096;-75
2022/06/18 03:48:25;;;;;;;12.07;5.38;;;;;;;19.82;60.90;93245.63;4788050;29;20027;-75
2022/06/18 03:50:50;;;;;;;8.85;4.85;;;;;;;19.82;60.83;93248.28;4803220;29;20459;-75
2022/06/18 03:53:16;;;;;;;9.45;4.80;;;;;;;19.83;60.27;93258.56;4802716;29;20043;-75
2022/06/18 03:55:43;;;;;;;9.55;4.70;;;;;;;19.90;59.76;93255.38;4787958;29;20394;-75
2022/06/18 03:58:09;;;;;;;10.75;4.75;;;;;;;19.92;60.21;93258.50;4787929;29;20070;-75
2022/06/18 04:00:37;;;;;;;9.73;4.78;;;;;;;19.91;59.88;93260.38;4797206;29;20395;-75
2022/06/18 04:03:03;;;;;;;11.70;4.88;;;;;;;19.93;59.64;93252.88;4805837;29;20041;-75
2022/06/18 04:05:32;;;;;;;10.13;4.75;;;;;;;19.93;60.00;93260.06;4806260;29;20038;-75
2022/06/18 04:07:58;;;;;;;7.82;4.40;;;;;;;19.93;60.18;93257.41;4805874;29;20427;-75
2022/06/18 04:10:39;;;;;;;9.98;4.82;;;;;;;19.94;60.54;93262.38;4805278;29;20098;-75
2022/06/18 04:13:04;;;;;;;8.60;5.30;;;;;;;19.95;60.56;93263.19;4822588;29;20096;-75
2022/06/18 04:15:59;;;;;;;7.15;5.00;;;;;;;19.98;60.71;93267.06;4798776;29;20064;-75
2022/06/18 04:18:28;;;;;;;8.88;5.70;;;;;;;20.04;61.33;93271.84;4806135;29;20449;-74
2022/06/18 04:20:56;;;;;;;13.85;5.82;;;;;;;20.08;61.37;93266.63;4805836;29;20498;-75
2022/06/18 04:23:23;;;;;;;12.13;5.30;;;;;;;20.13;61.71;93269.13;4790952;29;20038;-75
2022/06/18 04:25:49;;;;;;;11.15;5.30;;;;;;;20.14;62.35;93274.09;4805817;29;20041;-75
2022/06/18 04:28:17;;;;;;;8.02;5.32;;;;;;;20.17;62.42;93270.78;4805740;29;20167;-75
2022/06/18 04:30:52;;;;;;;11.95;5.82;;;;;;;20.17;62.64;93276.13;4822130;29;20030;-75
2022/06/18 04:33:26;;;;;;;9.52;5.15;;;;;;;20.21;62.79;93270.13;4805654;29;20034;-75
2022/06/18 04:35:58;;;;;;;8.95;4.88;;;;;;;20.24;62.62;93269.47;4805651;29;20519;-75
2022/06/18 04:38:25;;;;;;;11.60;5.05;;;;;;;20.28;61.96;93281.00;4805855;29;20537;-75
2022/06/18 04:41:22;;;;;;;9.10;3.90;;;;;;;20.33;58.26;93278.94;4805747;29;20045;-75
2022/06/18 04:43:55;;;;;;;6.10;3.63;;;;;;;20.39;57.17;93284.81;4805486;29;20145;-75
2022/06/18 04:46:22;;;;;;;8.70;4.55;;;;;;;20.42;58.58;93281.50;4805728;29;20065;-75
2022/06/18 04:48:50;;;;;;;9.93;4.15;;;;;;;20.47;58.54;93286.63;4791232;29;20078;-75
2022/06/18 04:51:15;;;;;;;6.22;4.35;;;;;;;20.54;59.49;93294.06;4805583;29;20068;-75
2022/06/18 04:53:41;;;;;;;8.85;4.55;;;;;;;20.56;60.62;93295.31;4805328;29;20129;-75
2022/06/18 04:56:10;;;;;;;15.05;4.72;;;;;;;20.59;60.04;93291.22;4790889;29;20045;-75
2022/06/18 04:58:38;;;;;;;8.63;4.22;;;;;;;20.65;58.79;93289.91;4806088;29;20057;-75
2022/06/18 05:01:04;;;;;;;9.07;4.38;;;;;;;20.70;58.07;93294.25;4805321;29;20051;-75
2022/06/18 05:03:39;;;;;;;10.43;4.22;;;;;;;20.77;57.23;93297.13;4821743;29;20057;-75
2022/06/18 05:06:15;;;;;;;7.82;3.97;;;;;;;20.87;56.82;93301.25;4791723;29;20053;-75
2022/06/18 05:08:59;;;;;;;11.10;4.28;;;;;;;20.96;56.79;93305.38;4821795;29;20271;-75
2022/06/18 05:11:25;;;;;;;10.25;4.65;;;;;;;21.04;56.54;93294.97;4805753;29;20100;-75
2022/06/18 05:13:59;;;;;;;8.52;4.05;;;;;;;21.14;56.02;93300.63;4805460;29;20046;-77
2022/06/18 05:16:30;;;;;;;7.30;4.28;;;;;;;21.10;56.47;93293.63;4805324;29;20046;-74
2022/06/18 05:18:56;;;;;;;10.02;4.25;;;;;;;21.19;55.13;93299.63;4805248;29;20689;-77
2022/06/18 05:21:22;;;;;;;8.15;4.53;;;;;;;21.23;55.51;93299.72;4806841;29;20064;-74
2022/06/18 05:23:48;;;;;;;10.35;4.38;;;;;;;21.32;55.82;93300.38;4808422;29;20121;-74
2022/06/18 05:26:18;;;;;;;8.70;4.10;;;;;;;21.37;55.12;93297.53;4793984;29;20049;-77
2022/06/18 05:28:44;;;;;;;11.98;4.50;;;;;;;21.45;55.15;93295.88;4808598;29;20517;-74
2022/06/18 05:31:11;;;;;;;8.30;4.20;;;;;;;21.57;53.80;93295.84;4808261;29;20046;-74
2022/06/18 05:33:37;;;;;;;10.20;4.32;;;;;;;21.67;53.83;93300.72;4793449;29;20038;-76
2022/06/18 05:36:04;;;;;;;7.60;3.95;;;;;;;21.69;53.99;93297.75;4808466;29;20046;-74
2022/06/18 05:38:29;;;;;;;8.05;3.92;;;;;;;21.76;54.00;93306.72;4809154;29;20026;-75
2022/06/18 05:40:56;;;;;;;12.50;4.75;;;;;;;21.87;53.42;93306.25;4808426;29;20053;-75
2022/06/18 05:43:22;;;;;;;8.32;4.47;;;;;;;21.98;53.44;93304.69;4808487;29;20527;-76
2022/06/18 05:45:49;;;;;;;10.35;4.93;;;;;;;22.30;53.73;93302.16;4808197;29;20068;-77
2022/06/18 05:48:14;;;;;;;9.05;4.70;;;;;;;22.75;52.75;93311.75;4808325;29;20046;-76
2022/06/18 05:50:40;;;;;;;8.52;5.00;;;;;;;23.12;52.37;93308.84;4793427;29;20053;-76
2022/06/18 05:53:07;;;;;;;7.90;5.00;;;;;;;23.49;51.45;93310.13;4807955;29;20061;-75
2022/06/18 05:55:53;;;;;;;10.98;5.20;;;;;;;23.93;50.90;93301.19;4807923;29;20042;-75
2022/06/18 05:58:39;;;;;;;11.38;5.57;;;;;;;24.16;51.01;93303.16;4823891;29;20064;-76
2022/06/18 06:01:16;;;;;;;11.80;5.90;;;;;;;24.44;50.68;93308.31;4791308;29;20063;-77
2022/06/18 06:03:42;;;;;;;14.85;6.10;;;;;;;24.63;49.99;93300.31;4806198;29;20039;-75
2022/06/18 06:06:07;;;;;;;8.90;6.13;;;;;;;24.93;49.95;93307.72;4805110;29;20034;-75
2022/06/18 06:08:37;;;;;;;14.20;6.20;;;;;;;25.24;49.34;93296.03;4805140;29;20080;-75
2022/06/18 06:13:47;;;;;;;12.88;5.93;;;;;;;25.69;48.34;93298.97;4804728;29;20059;-75
2022/06/18 06:16:13;;;;;;;11.82;6.38;;;;;;;26.02;47.01;93303.69;4804998;29;20413;-75
2022/06/18 06:18:38;;;;;;;9.48;5.45;;;;;;;26.33;46.12;93304.47;4805809;29;20141;-75
2022/06/18 06:21:04;;;;;;;9.52;5.53;;;;;;;26.63;44.89;93304.44;4805692;29;20055;-76
2022/06/18 06:23:30;;;;;;;13.52;5.47;;;;;;;26.77;45.57;93306.50;4805789;29;20115;-75
2022/06/18 06:25:56;;;;;;;8.02;4.82;;;;;;;26.94;44.98;93305.91;4805924;29;20114;-76
2022/06/18 06:28:25;;;;;;;10.02;5.00;;;;;;;27.00;44.74;93306.34;4789894;29;20053;-75
2022/06/18 06:30:51;;;;;;;7.40;4.88;;;;;;;27.14;44.28;93311.84;4805702;29;20045;-75
2022/06/18 06:33:18;;;;;;;9.45;4.50;;;;;;;27.09;42.10;93306.81;4788497;29;20405;-74
2022/06/18 06:35:45;;;;;;;9.50;4.78;;;;;;;26.82;44.32;93305.38;4805536;29;20454;-74
2022/06/18 06:38:11;;;;;;;11.88;5.28;;;;;;;26.74;44.89;93304.56;4804436;29;20051;-74
2022/06/18 06:40:37;;;;;;;11.30;4.93;;;;;;;26.41;45.04;93305.31;4804216;29;20389;-74
2022/06/18 06:43:04;;;;;;;9.02;4.80;;;;;;;26.33;44.53;93304.47;4805450;29;20095;-74
2022/06/18 06:45:32;;;;;;;9.85;4.78;;;;;;;26.40;44.03;93309.13;4805356;29;20223;-74
2022/06/18 06:47:58;;;;;;;12.95;4.70;;;;;;;26.23;46.19;93311.25;4805380;29;20034;-74
2022/06/18 06:50:26;;;;;;;13.60;4.80;;;;;;;26.32;46.04;93302.88;4805181;29;20047;-74
2022/06/18 06:52:53;;;;;;;7.18;4.13;;;;;;;26.02;44.73;93308.28;4805480;29;20338;-74
2022/06/18 06:58:11;;;;;;;9.82;4.60;;;;;;;25.41;45.65;93305.47;4803918;29;20141;-74
2022/06/18 07:00:41;;;;;;;9.93;4.53;;;;;;;25.46;46.45;93296.34;4804858;29;20525;-75
2022/06/18 07:03:10;;;;;;;8.20;4.05;;;;;;;25.31;46.79;93306.09;4805068;29;20391;-74
2022/06/18 07:05:36;;;;;;;7.00;4.03;;;;;;;25.17;45.20;93295.84;4788873;29;20088;-76
2022/06/18 07:08:02;;;;;;;8.02;4.35;;;;;;;25.18;46.23;93299.34;4789143;29;20401;-74
2022/06/18 07:10:28;;;;;;;7.57;3.92;;;;;;;25.30;46.86;93305.28;4805141;29;20120;-76
2022/06/18 07:12:56;;;;;;;6.03;4.00;;;;;;;24.76;46.50;93308.16;4811607;29;20046;-79
2022/06/18 07:15:21;;;;;;;7.82;3.72;;;;;;;24.82;47.94;93307.53;4816234;29;20049;-79
2022/06/18 07:17:47;;;;;;;8.27;4.10;;;;;;;24.46;46.79;93311.41;4816991;29;20038;-79
2022/06/18 07:20:16;;;;;;;9.68;4.00;;;;;;;24.51;45.82;93305.81;4799846;29;20106;-78
2022/06/18 07:22:41;;;;;;;9.07;4.20;;;;;;;24.50;46.49;93306.94;4813501;29;20050;-78
2022/06/18 07:25:08;;;;;;;6.78;3.78;;;;;;;24.79;46.51;93304.78;4798597;29;20043;-79
2022/06/18 07:27:34;;;;;;;7.60;3.65;;;;;;;24.93;47.98;93303.13;4807073;29;20034;-74
2022/06/18 07:30:00;;;;;;;6.40;3.80;;;;;;;24.76;46.64;93302.81;4806403;29;20043;-76
2022/06/18 07:32:26;;;;;;;7.70;4.07;;;;;;;24.87;44.83;93301.09;4806057;29;20096;-76
2022/06/18 07:34:53;;;;;;;6.75;3.80;;;;;;;24.62;46.37;93301.44;4805258;29;20593;-76
2022/06/18 07:37:21;;;;;;;12.00;4.40;;;;;;;24.31;44.76;93310.34;4805530;29;20335;-76
2022/06/18 07:39:46;;;;;;;6.72;3.70;;;;;;;24.46;45.38;93300.72;4805688;29;20395;-76
2022/06/18 07:42:14;;;;;;;5.82;3.95;;;;;;;24.77;47.25;93299.78;4789715;29;20039;-76
2022/06/18 07:44:40;;;;;;;8.93;4.22;;;;;;;24.72;47.58;93300.88;4788825;29;20530;-76
2022/06/18 07:47:05;;;;;;;8.60;4.13;;;;;;;24.53;48.39;93298.19;4788750;29;20050;-76
2022/06/18 07:49:31;;;;;;;8.18;4.55;;;;;;;24.40;48.71;93288.75;4788376;29;20039;-76
2022/06/18 07:51:57;;;;;;;10.52;4.57;;;;;;;24.34;49.39;93303.53;4804710;29;20171;-76
2022/06/18 07:54:23;;;;;;;9.85;4.18;;;;;;;24.65;46.66;93294.59;4804427;29;20506;-76
2022/06/18 07:56:49;;;;;;;12.15;4.55;;;;;;;25.02;49.29;93288.75;4804535;29;20038;-76
2022/06/18 07:59:16;;;;;;;8.90;4.40;;;;;;;25.01;49.46;93298.66;4804566;29;20050;-76
2022/06/18 08:01:42;;;;;;;11.13;4.63;;;;;;;24.91;49.58;93301.94;4788040;29;20058;-76
2022/06/18 08:04:08;;;;;;;8.10;4.28;;;;;;;24.71;49.36;93296.63;4804196;29;20224;-76
2022/06/18 08:06:33;;;;;;;8.85;4.40;;;;;;;24.57;50.77;93304.41;4804672;29;20111;-76
2022/06/18 08:08:59;;;;;;;9.45;4.65;;;;;;;24.53;49.95;93295.53;4788115;29;20043;-76
2022/06/18 08:11:25;;;;;;;7.93;4.75;;;;;;;24.69;48.93;93303.47;4804120;29;20031;-76
2022/06/18 08:13:52;;;;;;;7.32;4.63;;;;;;;24.61;51.17;93299.09;4788114;29;20047;-76
2022/06/18 08:16:20;;;;;;;8.40;4.90;;;;;;;24.86;46.75;93300.34;4804260;29;20038;-76
2022/06/18 08:18:47;;;;;;;10.15;4.93;;;;;;;25.08;48.99;93301.47;4804549;29;20409;-76
2022/06/18 08:21:35;;;;;;;7.82;4.60;;;;;;;25.13;48.70;93295.81;4804191;29;20042;-77
2022/06/18 08:24:09;;;;;;;6.45;4.10;;;;;;;25.10;49.36;93293.84;4787912;29;20039;-76
2022/06/18 08:26:38;;;;;;;8.07;4.60;;;;;;;25.27;46.91;93292.63;4788018;29;20047;-76
2022/06/18 08:29:06;;;;;;;13.52;4.88;;;;;;;25.42;46.24;93290.94;4804179;29;20035;-76
2022/06/18 08:31:32;;;;;;;9.02;4.50;;;;;;;25.63;45.90;93293.16;4788226;29;20084;-76
2022/06/18 08:33:58;;;;;;;7.70;4.82;;;;;;;25.84;44.11;93291.91;4803832;29;20469;-76
2022/06/18 08:36:24;;;;;;;8.55;4.65;;;;;;;25.69;44.55;93288.25;4804325;29;20049;-76
2022/06/18 08:38:51;;;;;;;6.70;4.60;;;;;;;25.84;45.21;93290.00;4787507;29;20138;-76
2022/06/18 08:41:19;;;;;;;8.20;4.80;;;;;;;25.91;47.08;93281.31;4772745;29;20054;-76
2022/06/18 08:44:18;;;;;;;8.15;4.72;;;;;;;25.73;46.91;93294.44;4803775;29;20027;-76
2022/06/18 08:47:00;;;;;;;8.48;4.47;;;;;;;25.95;45.96;93293.63;4803748;29;20414;-77
2022/06/18 08:50:00;;;;;;;9.80;4.70;;;;;;;26.14;45.54;93294.63;4787835;29;20053;-76
2022/06/18 08:52:38;;;;;;;9.23;5.03;;;;;;;26.01;47.50;93295.97;4787848;29;20042;-76
2022/06/18 08:55:29;;;;;;;11.68;5.30;;;;;;;26.02;47.29;93295.63;4803735;29;20421;-76
2022/06/18 08:58:12;;;;;;;10.98;5.60;;;;;;;26.16;45.16;93305.75;4791284;29;20050;-76
2022/06/18 09:00:58;;;;;;;8.30;4.95;;;;;;;26.13;45.88;93307.28;4807339;29;20141;-76
2022/06/18 09:03:53;;;;;;;11.80;5.63;;;;;;;25.83;46.88;93304.56;4807541;29;20065;-76
2022/06/18 09:06:19;;;;;;;12.10;5.60;;;;;;;25.57;46.87;93299.19;4769782;29;20138;-76
2022/06/18 09:08:52;;;;;;;11.45;5.15;;;;;;;25.95;48.21;93301.69;4790924;29;20117;-76
2022/06/18 09:11:27;;;;;;;8.25;5.00;;;;;;;26.18;46.12;93298.91;4807219;29;20418;-76
2022/06/18 09:14:17;;;;;;;7.93;4.82;;;;;;;26.09;46.98;93300.31;4807093;29;20142;-76
2022/06/18 09:17:09;;;;;;;7.65;5.03;;;;;;;26.45;47.23;93295.38;4807014;29;20046;-76
2022/06/18 09:19:36;;;;;;;10.73;5.00;;;;;;;26.55;45.70;93289.41;4781078;29;20504;-76
2022/06/18 09:22:07;;;;;;;7.15;4.93;;;;;;;26.58;45.47;93299.41;4807075;29;20039;-76
2022/06/18 09:24:44;;;;;;;7.82;4.68;;;;;;;26.32;47.05;93295.63;4806686;29;20148;-76
2022/06/18 09:27:22;;;;;;;10.10;4.90;;;;;;;26.30;44.71;93292.53;4806921;29;20565;-76
2022/06/18 09:30:02;;;;;;;9.07;4.28;;;;;;;26.32;46.62;93292.94;4790661;29;20034;-76
2022/06/18 09:32:32;;;;;;;7.40;4.95;;;;;;;26.41;44.56;93289.19;4806706;29;20042;-76
2022/06/18 09:35:12;;;;;;;7.35;4.60;;;;;;;26.17;46.34;93286.63;4790537;29;20023;-76
2022/06/18 09:37:51;;;;;;;9.48;4.93;;;;;;;26.23;44.93;93289.78;4790526;29;20050;-76
2022/06/18 09:40:32;;;;;;;6.82;4.70;;;;;;;26.38;47.22;93288.78;4790603;29;20043;-75
2022/06/18 09:43:14;;;;;;;7.75;4.85;;;;;;;26.47;45.54;93291.19;4790472;29;20120;-76
2022/06/18 09:45:48;;;;;;;10.07;4.30;;;;;;;26.62;46.53;93284.09;4806289;29;20081;-76
2022/06/18 09:48:14;;;;;;;9.25;4.50;;;;;;;26.73;44.22;93293.03;4790152;29;20049;-76
2022/06/18 09:50:49;;;;;;;9.10;4.57;;;;;;;26.70;45.07;93283.03;4806352;29;20043;-75
2022/06/18 09:53:25;;;;;;;7.20;4.57;;;;;;;26.75;43.49;93285.41;4790115;29;20532;-76
2022/06/18 09:56:04;;;;;;;9.68;4.82;;;;;;;26.89;43.94;93287.44;4790210;29;20054;-76
2022/06/18 09:58:42;;;;;;;7.90;4.70;;;;;;;26.62;46.07;93286.78;4808114;29;20071;-76
2022/06/18 10:01:13;;;;;;;8.85;4.70;;;;;;;26.35;44.42;93286.84;4806184;29;20057;-76
2022/06/18 10:09:21;;;;;;;9.18;4.82;;;;;;;25.86;45.83;93277.00;4789266;29;20084;-76
2022/06/18 10:11:47;;;;;;;7.63;4.40;;;;;;;25.95;46.01;93290.19;4806549;29;20043;-75
2022/06/18 10:14:19;;;;;;;9.10;4.60;;;;;;;25.68;44.95;93282.13;4805745;29;20039;-75
2022/06/18 10:16:50;;;;;;;7.25;4.15;;;;;;;25.70;45.26;93282.53;4805872;29;20501;-76
2022/06/18 10:19:38;;;;;;;9.32;4.78;;;;;;;25.64;44.78;93283.97;4789965;29;20049;-76
2022/06/18 10:22:23;;;;;;;6.57;4.30;;;;;;;25.78;44.06;93275.34;4805881;29;20038;-76
2022/06/18 10:25:12;;;;;;;10.05;4.55;;;;;;;25.99;45.34;93276.81;4789673;29;20034;-76
2022/06/18 10:27:45;;;;;;;5.85;4.00;;;;;;;26.41;44.28;93283.81;4805821;29;20034;-76
2022/06/18 10:30:18;;;;;;;6.35;4.25;;;;;;;26.63;43.92;93274.91;4805792;29;20038;-76
2022/06/18 10:32:56;;;;;;;8.93;4.50;;;;;;;26.48;42.71;93259.75;4789603;29;20101;-76
2022/06/18 10:35:27;;;;;;;10.70;4.28;;;;;;;26.41;43.73;93263.13;4805596;29;20042;-76
2022/06/18 10:38:02;;;;;;;7.53;4.20;;;;;;;26.56;41.69;93269.47;4805281;29;20504;-76
2022/06/18 10:40:58;;;;;;;10.68;3.92;;;;;;;26.75;43.46;93271.97;4805853;29;20469;-76
2022/06/18 10:43:23;;;;;;;5.65;3.85;;;;;;;26.64;42.37;93264.91;4805411;29;20509;-76
2022/06/18 10:45:59;;;;;;;7.88;4.32;;;;;;;26.42;40.84;93263.91;4805469;29;20030;-76
2022/06/18 10:48:27;;;;;;;6.13;3.92;;;;;;;26.59;42.21;93268.72;4805459;29;20043;-76
2022/06/18 10:50:56;;;;;;;6.28;3.88;;;;;;;26.35;43.06;93259.25;4805428;29;20482;-76
2022/06/18 10:53:25;;;;;;;8.13;4.40;;;;;;;26.31;43.62;93264.56;4805119;29;20042;-76
2022/06/18 10:56:19;;;;;;;9.25;4.28;;;;;;;26.08;43.81;93262.00;4789239;29;20278;-76
2022/06/18 10:58:53;;;;;;;10.38;4.53;;;;;;;26.15;42.07;93258.63;4803057;29;20058;-76
2022/06/18 11:01:31;;;;;;;7.07;3.90;;;;;;;26.21;43.34;93254.50;4805036;29;20367;-76
2022/06/18 11:04:00;;;;;;;9.93;4.40;;;;;;;26.31;44.27;93256.50;4805196;29;20042;-76
2022/06/18 11:06:27;;;;;;;11.70;4.40;;;;;;;26.44;43.76;93253.59;4788901;29;20043;-76
2022/06/18 11:08:58;;;;;;;9.13;5.10;;;;;;;26.61;43.79;93249.56;4789270;29;20153;-76
2022/06/18 11:11:28;;;;;;;9.68;4.95;;;;;;;26.53;43.72;93248.69;4789403;29;20660;-76
2022/06/18 11:13:54;;;;;;;12.52;4.88;;;;;;;26.49;42.49;93237.16;4804903;29;20119;-76
2022/06/18 11:16:22;;;;;;;8.32;3.67;;;;;;;26.46;44.16;93243.25;4805266;29;20080;-76
2022/06/18 11:19:01;;;;;;;7.65;5.07;;;;;;;26.57;44.13;93238.81;4804891;29;20042;-76
2022/06/18 11:21:43;;;;;;;10.07;4.13;;;;;;;26.40;43.53;93240.13;4789398;29;20085;-76
2022/06/18 11:24:12;;;;;;;7.93;4.90;;;;;;;26.41;44.15;93240.88;4805166;29;20050;-76
2022/06/18 11:26:55;;;;;;;7.35;4.32;;;;;;;26.37;44.71;93238.94;4805246;29;20042;-76
2022/06/18 11:29:25;;;;;;;10.60;4.60;;;;;;;26.38;43.12;93237.03;4805326;29;20052;-75
2022/06/18 11:31:54;;;;;;;7.47;4.93;;;;;;;26.44;44.34;93242.84;4805239;29;20407;-76
2022/06/18 11:34:27;;;;;;;6.13;4.35;;;;;;;26.40;43.92;93233.97;4788179;29;20039;-77
2022/06/18 11:36:56;;;;;;;11.27;5.10;;;;;;;26.31;44.22;93239.63;4788928;29;20122;-77
2022/06/18 11:39:38;;;;;;;8.65;4.63;;;;;;;26.45;45.48;93239.00;4805168;29;20485;-77
2022/06/18 11:42:03;;;;;;;;;;;;;;;26.51;44.31;93226.81;4789630;29;20046;-78
2022/06/18 11:44:52;;;;;;;9.73;5.40;;;;;;;26.65;44.81;93229.66;4804341;29;19969;-76
2022/06/18 11:47:32;;;;;;;7.43;4.70;;;;;;;26.56;43.50;93226.50;4778574;29;20106;-76
2022/06/18 11:50:36;;;;;;;9.00;4.90;;;;;;;26.35;43.36;93227.81;4804275;29;20052;-76
2022/06/18 11:53:05;;;;;;;11.23;5.10;;;;;;;26.37;45.63;93230.91;4730414;30;20124;-76
2022/06/18 11:55:39;;;;;;;10.20;4.63;;;;;;;26.64;44.97;93230.81;4730701;30;20493;-76
2022/06/18 11:58:33;;;;;;;11.27;5.18;;;;;;;26.28;44.30;93227.72;4770723;29;20062;-76
2022/06/18 12:01:10;;;;;;;11.50;5.00;;;;;;;26.40;44.27;93220.56;4804134;29;20050;-76
2022/06/18 12:03:36;;;;;;;10.27;4.55;;;;;;;26.58;44.42;93219.63;4804335;29;20490;-76
2022/06/18 12:06:11;;;;;;;7.22;5.40;;;;;;;26.66;42.93;93217.78;4788130;29;20482;-76
2022/06/18 12:08:38;;;;;;;8.10;4.50;;;;;;;26.79;43.99;93216.38;4804033;29;20126;-76